Viroqua, WI (54665)

9:28 AM CDT on August 28, 2016 (GMT -0500)
Viroqua | | Change Station
Active Advisory: Dense Fog Advisory

Elev 1293 ft 43.58 °N, 90.90 °W | Updated 13 minutes ago

Overcast
Overcast
65 °F
Feels Like 65 °F
N
0
Wind Variable Wind from North

Today
High -- | Low -- °F
--% Chance of Precip.
Yesterday
High -- | Low -- °F
Precip. -- in
Pressure 30.22 in
Visibility 0.2 miles
Clouds Overcast 100 ft
Dew Point 65 °F
Humidity 100%
Rainfall 0.03 in
Snow Depth Not available.
6:23 AM 7:44 PM
Waning Crescent, 15% visible
METAR KY51 281415Z AUTO 00000KT M1/4SM OVC001 18/18 A3022 RMK AO1 T01820182
Pressure 30.22 in
Visibility 0.2 miles
Clouds Overcast 100 ft
Dew Point 65 °F
Humidity 100%
Rainfall 0.03 in
Snow Depth Not available.
6:23 AM 7:44 PM
Waning Crescent, 15% visible
METAR KY51 281415Z AUTO 00000KT M1/4SM OVC001 18/18 A3022 RMK AO1 T01820182

10-Day Weather Forecast

Almanac

Astronomy

Aug. 28, 2016 Rise Set
Actual Time
Civil Twilight
Nautical Twilight
Astronomical Twilight
Moon
Length of Visible Light
Length of Day
Tomorrow will be .
, % of the Moon is Illuminated

Today's Extremes

State Highs State Lows

Community

WunderPhotos

Upload Photos

1,935,577 photos uploaded!

WunderBlog® & News

Nearby

Air Quality

  Air Quality AQ Index Pollutant
Not available.

Snow Depth

Station Depth Elevation

Earthquake Activity

City Distance Mag. Time & Date
Minimum magnitude displayed is 2.5.

Coastal Water Temperatures

Place Temperature

Stations

Nearby Weather Stations

Station Location Temp. Windchill Dew Point Humidity Wind Precip. Elev Updated Type
                   

Watches & Warnings

Dense Fog Advisory
Issued: 7:03 AM CDT Aug. 28, 2016 – National Weather Service

... Dense fog advisory remains in effect until 10 am CDT this
morning...

* watch out for widespread visibilities of 1/4 mile or less.

* Travel will be impacted through mid-morning due to the
severely restricted visibility.

Precautionary/preparedness actions...

A dense fog advisory means visibilities will frequently be
reduced to less than one quarter mile. If driving... slow down...
use your headlights... and leave plenty of distance ahead of you.